sensor_id;sensor_type;location;lat;lon;timestamp;P1;durP1;ratioP1;P2;durP2;ratioP2
9392;SDS011;4736;52.508;13.422;2022-11-15T00:02:54;51.80;;;35.93;;
9392;SDS011;4736;52.508;13.422;2022-11-15T00:06:01;44.93;;;33.60;;
9392;SDS011;4736;52.508;13.422;2022-11-15T00:09:05;49.33;;;35.47;;
9392;SDS011;4736;52.508;13.422;2022-11-15T00:12:11;50.23;;;35.27;;
9392;SDS011;4736;52.508;13.422;2022-11-15T00:15:14;49.37;;;34.43;;
9392;SDS011;4736;52.508;13.422;2022-11-15T00:18:17;44.17;;;35.67;;
9392;SDS011;4736;52.508;13.422;2022-11-15T00:21:20;47.33;;;36.00;;
9392;SDS011;4736;52.508;13.422;2022-11-15T00:24:23;54.80;;;36.30;;
9392;SDS011;4736;52.508;13.422;2022-11-15T00:27:28;52.30;;;36.57;;
9392;SDS011;4736;52.508;13.422;2022-11-15T00:30:31;53.27;;;37.93;;
9392;SDS011;4736;52.508;13.422;2022-11-15T00:33:34;49.60;;;35.33;;
9392;SDS011;4736;52.508;13.422;2022-11-15T00:36:37;47.63;;;34.87;;
9392;SDS011;4736;52.508;13.422;2022-11-15T00:39:43;52.73;;;34.93;;
9392;SDS011;4736;52.508;13.422;2022-11-15T00:42:48;48.87;;;34.93;;
9392;SDS011;4736;52.508;13.422;2022-11-15T00:45:51;52.27;;;35.57;;
9392;SDS011;4736;52.508;13.422;2022-11-15T00:48:54;48.60;;;35.43;;
9392;SDS011;4736;52.508;13.422;2022-11-15T00:52:01;52.43;;;37.17;;
9392;SDS011;4736;52.508;13.422;2022-11-15T00:55:04;49.23;;;36.40;;
9392;SDS011;4736;52.508;13.422;2022-11-15T00:58:09;52.17;;;34.67;;
9392;SDS011;4736;52.508;13.422;2022-11-15T01:01:13;53.07;;;35.80;;
9392;SDS011;4736;52.508;13.422;2022-11-15T01:04:17;49.40;;;35.27;;
9392;SDS011;4736;52.508;13.422;2022-11-15T01:07:20;52.37;;;35.50;;
9392;SDS011;4736;52.508;13.422;2022-11-15T01:10:23;51.57;;;35.13;;
9392;SDS011;4736;52.508;13.422;2022-11-15T01:13:35;49.40;;;33.57;;
9392;SDS011;4736;52.508;13.422;2022-11-15T01:16:39;53.03;;;35.77;;
9392;SDS011;4736;52.508;13.422;2022-11-15T01:19:42;53.03;;;37.60;;
9392;SDS011;4736;52.508;13.422;2022-11-15T01:22:45;48.43;;;34.73;;
9392;SDS011;4736;52.508;13.422;2022-11-15T01:25:48;47.27;;;34.83;;
9392;SDS011;4736;52.508;13.422;2022-11-15T01:28:52;51.17;;;34.47;;
9392;SDS011;4736;52.508;13.422;2022-11-15T01:31:55;49.83;;;35.23;;
9392;SDS011;4736;52.508;13.422;2022-11-15T01:34:58;47.07;;;33.43;;
9392;SDS011;4736;52.508;13.422;2022-11-15T01:38:02;45.17;;;34.00;;
9392;SDS011;4736;52.508;13.422;2022-11-15T01:41:05;48.13;;;34.77;;
9392;SDS011;4736;52.508;13.422;2022-11-15T01:47:48;48.03;;;34.33;;
9392;SDS011;4736;52.508;13.422;2022-11-15T01:50:54;57.63;;;37.07;;
9392;SDS011;4736;52.508;13.422;2022-11-15T01:53:58;50.83;;;35.73;;
9392;SDS011;4736;52.508;13.422;2022-11-15T01:57:06;51.30;;;34.77;;
9392;SDS011;4736;52.508;13.422;2022-11-15T02:00:14;52.93;;;36.93;;
9392;SDS011;4736;52.508;13.422;2022-11-15T02:03:17;50.27;;;37.17;;
9392;SDS011;4736;52.508;13.422;2022-11-15T02:06:24;47.97;;;34.07;;
9392;SDS011;4736;52.508;13.422;2022-11-15T02:09:27;51.53;;;35.50;;
9392;SDS011;4736;52.508;13.422;2022-11-15T02:12:30;51.10;;;34.70;;
9392;SDS011;4736;52.508;13.422;2022-11-15T02:15:37;52.73;;;36.53;;
9392;SDS011;4736;52.508;13.422;2022-11-15T02:18:47;58.63;;;37.83;;
9392;SDS011;4736;52.508;13.422;2022-11-15T02:21:56;51.67;;;35.20;;
9392;SDS011;4736;52.508;13.422;2022-11-15T02:25:18;48.37;;;35.53;;
9392;SDS011;4736;52.508;13.422;2022-11-15T02:28:44;53.80;;;37.20;;
9392;SDS011;4736;52.508;13.422;2022-11-15T02:31:59;56.13;;;36.87;;
9392;SDS011;4736;52.508;13.422;2022-11-15T02:35:11;50.43;;;36.27;;
9392;SDS011;4736;52.508;13.422;2022-11-15T02:38:22;52.90;;;36.87;;
9392;SDS011;4736;52.508;13.422;2022-11-15T02:41:34;52.43;;;35.27;;
9392;SDS011;4736;52.508;13.422;2022-11-15T02:44:43;55.40;;;37.57;;
9392;SDS011;4736;52.508;13.422;2022-11-15T02:47:48;51.60;;;36.10;;
9392;SDS011;4736;52.508;13.422;2022-11-15T02:50:55;51.03;;;35.73;;
9392;SDS011;4736;52.508;13.422;2022-11-15T02:53:59;53.00;;;35.87;;
9392;SDS011;4736;52.508;13.422;2022-11-15T02:57:04;50.10;;;36.37;;
9392;SDS011;4736;52.508;13.422;2022-11-15T03:00:09;48.23;;;34.20;;
9392;SDS011;4736;52.508;13.422;2022-11-15T03:03:37;53.87;;;35.63;;
9392;SDS011;4736;52.508;13.422;2022-11-15T03:06:49;50.13;;;34.03;;
9392;SDS011;4736;52.508;13.422;2022-11-15T03:09:57;57.10;;;38.63;;
9392;SDS011;4736;52.508;13.422;2022-11-15T03:13:08;50.23;;;36.63;;
9392;SDS011;4736;52.508;13.422;2022-11-15T03:16:19;45.70;;;33.57;;
9392;SDS011;4736;52.508;13.422;2022-11-15T03:19:37;46.33;;;32.97;;
9392;SDS011;4736;52.508;13.422;2022-11-15T03:22:46;51.37;;;35.63;;
9392;SDS011;4736;52.508;13.422;2022-11-15T03:25:51;53.17;;;37.60;;
9392;SDS011;4736;52.508;13.422;2022-11-15T03:28:58;49.73;;;34.73;;
9392;SDS011;4736;52.508;13.422;2022-11-15T03:32:06;44.97;;;34.00;;
9392;SDS011;4736;52.508;13.422;2022-11-15T03:35:17;53.37;;;36.47;;
9392;SDS011;4736;52.508;13.422;2022-11-15T03:38:23;49.73;;;34.77;;
9392;SDS011;4736;52.508;13.422;2022-11-15T03:41:28;54.70;;;37.67;;
9392;SDS011;4736;52.508;13.422;2022-11-15T03:44:39;50.63;;;35.03;;
9392;SDS011;4736;52.508;13.422;2022-11-15T03:47:45;52.90;;;34.63;;
9392;SDS011;4736;52.508;13.422;2022-11-15T03:50:52;54.37;;;37.93;;
9392;SDS011;4736;52.508;13.422;2022-11-15T03:53:56;51.87;;;37.87;;
9392;SDS011;4736;52.508;13.422;2022-11-15T03:56:59;51.40;;;34.60;;
9392;SDS011;4736;52.508;13.422;2022-11-15T04:00:02;51.00;;;35.37;;
9392;SDS011;4736;52.508;13.422;2022-11-15T04:03:06;51.40;;;35.97;;
9392;SDS011;4736;52.508;13.422;2022-11-15T04:06:10;52.27;;;37.40;;
9392;SDS011;4736;52.508;13.422;2022-11-15T04:09:14;53.47;;;35.77;;
9392;SDS011;4736;52.508;13.422;2022-11-15T04:12:17;52.07;;;36.47;;
9392;SDS011;4736;52.508;13.422;2022-11-15T04:15:32;57.77;;;36.47;;
9392;SDS011;4736;52.508;13.422;2022-11-15T04:18:35;45.50;;;33.17;;
9392;SDS011;4736;52.508;13.422;2022-11-15T04:21:40;50.50;;;34.37;;
9392;SDS011;4736;52.508;13.422;2022-11-15T04:25:24;55.27;;;36.37;;
9392;SDS011;4736;52.508;13.422;2022-11-15T04:28:32;48.20;;;35.23;;
9392;SDS011;4736;52.508;13.422;2022-11-15T04:31:36;49.13;;;33.00;;
9392;SDS011;4736;52.508;13.422;2022-11-15T04:34:39;47.47;;;34.33;;
9392;SDS011;4736;52.508;13.422;2022-11-15T04:37:44;51.87;;;36.77;;
9392;SDS011;4736;52.508;13.422;2022-11-15T04:40:49;48.43;;;34.27;;
9392;SDS011;4736;52.508;13.422;2022-11-15T04:43:52;50.10;;;35.90;;
9392;SDS011;4736;52.508;13.422;2022-11-15T04:46:56;50.17;;;34.20;;
9392;SDS011;4736;52.508;13.422;2022-11-15T04:49:59;50.87;;;34.90;;
9392;SDS011;4736;52.508;13.422;2022-11-15T04:53:03;50.10;;;36.57;;
9392;SDS011;4736;52.508;13.422;2022-11-15T04:56:07;49.30;;;35.47;;
9392;SDS011;4736;52.508;13.422;2022-11-15T04:59:10;51.83;;;35.93;;
9392;SDS011;4736;52.508;13.422;2022-11-15T05:02:13;50.97;;;34.33;;
9392;SDS011;4736;52.508;13.422;2022-11-15T05:05:20;52.93;;;34.23;;
9392;SDS011;4736;52.508;13.422;2022-11-15T05:08:23;50.00;;;35.17;;
9392;SDS011;4736;52.508;13.422;2022-11-15T05:11:26;52.30;;;37.83;;
9392;SDS011;4736;52.508;13.422;2022-11-15T05:14:29;53.37;;;37.73;;
9392;SDS011;4736;52.508;13.422;2022-11-15T05:17:32;51.20;;;35.33;;
9392;SDS011;4736;52.508;13.422;2022-11-15T05:20:35;52.47;;;35.17;;
9392;SDS011;4736;52.508;13.422;2022-11-15T05:23:40;53.20;;;34.97;;
9392;SDS011;4736;52.508;13.422;2022-11-15T05:26:43;52.67;;;35.50;;
9392;SDS011;4736;52.508;13.422;2022-11-15T05:29:46;46.00;;;33.67;;
9392;SDS011;4736;52.508;13.422;2022-11-15T05:32:49;42.63;;;31.27;;
9392;SDS011;4736;52.508;13.422;2022-11-15T05:35:54;46.30;;;31.83;;
9392;SDS011;4736;52.508;13.422;2022-11-15T05:39:04;42.87;;;31.60;;
9392;SDS011;4736;52.508;13.422;2022-11-15T05:42:10;45.40;;;32.07;;
9392;SDS011;4736;52.508;13.422;2022-11-15T05:45:16;55.73;;;36.00;;
9392;SDS011;4736;52.508;13.422;2022-11-15T05:48:26;46.17;;;32.87;;
9392;SDS011;4736;52.508;13.422;2022-11-15T05:51:30;51.23;;;36.10;;
9392;SDS011;4736;52.508;13.422;2022-11-15T05:54:34;50.53;;;36.57;;
9392;SDS011;4736;52.508;13.422;2022-11-15T05:57:38;50.97;;;34.13;;
9392;SDS011;4736;52.508;13.422;2022-11-15T06:00:41;52.70;;;36.40;;
9392;SDS011;4736;52.508;13.422;2022-11-15T06:03:45;44.47;;;33.30;;
9392;SDS011;4736;52.508;13.422;2022-11-15T06:06:48;44.47;;;33.17;;
9392;SDS011;4736;52.508;13.422;2022-11-15T06:09:52;50.47;;;35.80;;
9392;SDS011;4736;52.508;13.422;2022-11-15T06:12:56;50.23;;;34.43;;
9392;SDS011;4736;52.508;13.422;2022-11-15T06:16:04;52.93;;;34.87;;
9392;SDS011;4736;52.508;13.422;2022-11-15T06:19:07;52.20;;;35.97;;
9392;SDS011;4736;52.508;13.422;2022-11-15T06:22:10;56.57;;;37.30;;
9392;SDS011;4736;52.508;13.422;2022-11-15T06:25:24;52.10;;;35.43;;
9392;SDS011;4736;52.508;13.422;2022-11-15T06:28:27;47.90;;;34.63;;
9392;SDS011;4736;52.508;13.422;2022-11-15T06:31:31;53.80;;;35.07;;
9392;SDS011;4736;52.508;13.422;2022-11-15T06:34:35;54.30;;;36.40;;
9392;SDS011;4736;52.508;13.422;2022-11-15T06:37:38;61.03;;;37.60;;
9392;SDS011;4736;52.508;13.422;2022-11-15T06:40:42;57.37;;;36.40;;
9392;SDS011;4736;52.508;13.422;2022-11-15T06:43:45;58.03;;;36.80;;
9392;SDS011;4736;52.508;13.422;2022-11-15T06:46:48;55.47;;;37.53;;
9392;SDS011;4736;52.508;13.422;2022-11-15T06:49:51;54.70;;;37.43;;
9392;SDS011;4736;52.508;13.422;2022-11-15T06:52:54;47.47;;;33.00;;
9392;SDS011;4736;52.508;13.422;2022-11-15T06:56:07;50.37;;;35.47;;
9392;SDS011;4736;52.508;13.422;2022-11-15T06:59:10;53.13;;;34.90;;
9392;SDS011;4736;52.508;13.422;2022-11-15T07:02:13;54.27;;;37.03;;
9392;SDS011;4736;52.508;13.422;2022-11-15T07:05:16;53.07;;;34.90;;
9392;SDS011;4736;52.508;13.422;2022-11-15T07:08:19;53.63;;;35.63;;
9392;SDS011;4736;52.508;13.422;2022-11-15T07:11:24;47.30;;;34.13;;
9392;SDS011;4736;52.508;13.422;2022-11-15T07:14:27;52.23;;;36.53;;
9392;SDS011;4736;52.508;13.422;2022-11-15T07:17:31;54.20;;;36.30;;
9392;SDS011;4736;52.508;13.422;2022-11-15T07:20:34;52.30;;;35.77;;
9392;SDS011;4736;52.508;13.422;2022-11-15T07:23:37;55.50;;;36.97;;
9392;SDS011;4736;52.508;13.422;2022-11-15T07:26:42;48.37;;;34.93;;
9392;SDS011;4736;52.508;13.422;2022-11-15T07:29:45;50.87;;;35.57;;
9392;SDS011;4736;52.508;13.422;2022-11-15T07:32:52;50.20;;;32.90;;
9392;SDS011;4736;52.508;13.422;2022-11-15T07:35:59;52.53;;;37.10;;
9392;SDS011;4736;52.508;13.422;2022-11-15T07:39:03;49.83;;;34.57;;
9392;SDS011;4736;52.508;13.422;2022-11-15T07:42:09;56.13;;;37.67;;
9392;SDS011;4736;52.508;13.422;2022-11-15T07:45:30;52.10;;;35.70;;
9392;SDS011;4736;52.508;13.422;2022-11-15T07:48:34;57.60;;;38.57;;
9392;SDS011;4736;52.508;13.422;2022-11-15T07:51:44;50.47;;;37.30;;
9392;SDS011;4736;52.508;13.422;2022-11-15T07:54:48;54.20;;;36.87;;
9392;SDS011;4736;52.508;13.422;2022-11-15T07:57:52;53.13;;;37.47;;
9392;SDS011;4736;52.508;13.422;2022-11-15T08:00:55;47.97;;;35.53;;
9392;SDS011;4736;52.508;13.422;2022-11-15T08:03:58;53.40;;;36.53;;
9392;SDS011;4736;52.508;13.422;2022-11-15T08:07:01;53.47;;;36.50;;
9392;SDS011;4736;52.508;13.422;2022-11-15T08:10:04;51.13;;;35.77;;
9392;SDS011;4736;52.508;13.422;2022-11-15T08:13:10;44.27;;;33.27;;
9392;SDS011;4736;52.508;13.422;2022-11-15T08:16:14;50.33;;;35.97;;
9392;SDS011;4736;52.508;13.422;2022-11-15T08:19:17;41.40;;;31.63;;
9392;SDS011;4736;52.508;13.422;2022-11-15T08:22:20;50.73;;;35.73;;
9392;SDS011;4736;52.508;13.422;2022-11-15T08:25:23;44.90;;;33.67;;
9392;SDS011;4736;52.508;13.422;2022-11-15T08:28:28;49.53;;;34.80;;
9392;SDS011;4736;52.508;13.422;2022-11-15T08:31:31;50.90;;;33.87;;
9392;SDS011;4736;52.508;13.422;2022-11-15T08:34:34;46.53;;;33.90;;
9392;SDS011;4736;52.508;13.422;2022-11-15T08:37:37;47.50;;;33.03;;
9392;SDS011;4736;52.508;13.422;2022-11-15T08:40:40;42.00;;;32.97;;
9392;SDS011;4736;52.508;13.422;2022-11-15T08:43:45;46.97;;;34.13;;
9392;SDS011;4736;52.508;13.422;2022-11-15T08:46:54;43.53;;;33.53;;
9392;SDS011;4736;52.508;13.422;2022-11-15T08:49:56;45.10;;;34.37;;
9392;SDS011;4736;52.508;13.422;2022-11-15T08:53:03;46.53;;;31.80;;
9392;SDS011;4736;52.508;13.422;2022-11-15T08:56:08;41.33;;;32.03;;
9392;SDS011;4736;52.508;13.422;2022-11-15T08:59:13;41.77;;;31.87;;
9392;SDS011;4736;52.508;13.422;2022-11-15T09:02:16;38.97;;;30.57;;
9392;SDS011;4736;52.508;13.422;2022-11-15T09:05:19;42.87;;;32.83;;
9392;SDS011;4736;52.508;13.422;2022-11-15T09:08:22;37.47;;;31.00;;
9392;SDS011;4736;52.508;13.422;2022-11-15T09:11:45;38.83;;;30.47;;
9392;SDS011;4736;52.508;13.422;2022-11-15T09:14:49;37.63;;;30.00;;
9392;SDS011;4736;52.508;13.422;2022-11-15T09:18:04;38.23;;;30.33;;
9392;SDS011;4736;52.508;13.422;2022-11-15T09:21:08;39.00;;;29.37;;
9392;SDS011;4736;52.508;13.422;2022-11-15T09:24:14;34.00;;;27.37;;
9392;SDS011;4736;52.508;13.422;2022-11-15T09:27:27;32.93;;;28.17;;
9392;SDS011;4736;52.508;13.422;2022-11-15T09:30:31;32.37;;;26.30;;
9392;SDS011;4736;52.508;13.422;2022-11-15T09:33:36;32.80;;;25.20;;
9392;SDS011;4736;52.508;13.422;2022-11-15T09:36:39;28.13;;;24.90;;
9392;SDS011;4736;52.508;13.422;2022-11-15T09:39:42;31.57;;;24.73;;
9392;SDS011;4736;52.508;13.422;2022-11-15T09:42:54;31.17;;;23.90;;
9392;SDS011;4736;52.508;13.422;2022-11-15T09:46:11;27.80;;;23.67;;
9392;SDS011;4736;52.508;13.422;2022-11-15T09:49:20;25.90;;;21.60;;
9392;SDS011;4736;52.508;13.422;2022-11-15T09:52:24;23.90;;;21.27;;
9392;SDS011;4736;52.508;13.422;2022-11-15T09:55:31;23.00;;;20.47;;
9392;SDS011;4736;52.508;13.422;2022-11-15T09:58:39;24.80;;;18.77;;
9392;SDS011;4736;52.508;13.422;2022-11-15T10:01:56;23.63;;;21.13;;
9392;SDS011;4736;52.508;13.422;2022-11-15T10:05:06;23.20;;;18.50;;
9392;SDS011;4736;52.508;13.422;2022-11-15T10:08:23;24.53;;;20.00;;
9392;SDS011;4736;52.508;13.422;2022-11-15T10:11:34;24.67;;;20.67;;
9392;SDS011;4736;52.508;13.422;2022-11-15T10:14:41;23.57;;;20.13;;
9392;SDS011;4736;52.508;13.422;2022-11-15T10:17:54;22.57;;;20.20;;
9392;SDS011;4736;52.508;13.422;2022-11-15T10:21:15;23.33;;;19.77;;
9392;SDS011;4736;52.508;13.422;2022-11-15T10:24:24;22.37;;;19.03;;
9392;SDS011;4736;52.508;13.422;2022-11-15T10:27:29;20.53;;;18.27;;
9392;SDS011;4736;52.508;13.422;2022-11-15T10:30:34;22.73;;;19.63;;
9392;SDS011;4736;52.508;13.422;2022-11-15T10:33:40;22.77;;;20.37;;
9392;SDS011;4736;52.508;13.422;2022-11-15T10:36:44;23.67;;;20.47;;
9392;SDS011;4736;52.508;13.422;2022-11-15T10:40:01;22.23;;;19.90;;
9392;SDS011;4736;52.508;13.422;2022-11-15T10:43:12;20.90;;;18.60;;
9392;SDS011;4736;52.508;13.422;2022-11-15T10:46:18;22.90;;;19.90;;
9392;SDS011;4736;52.508;13.422;2022-11-15T10:49:57;23.00;;;19.30;;
9392;SDS011;4736;52.508;13.422;2022-11-15T10:53:02;22.23;;;19.93;;
9392;SDS011;4736;52.508;13.422;2022-11-15T10:56:06;20.80;;;18.70;;
9392;SDS011;4736;52.508;13.422;2022-11-15T10:59:14;26.10;;;19.87;;
9392;SDS011;4736;52.508;13.422;2022-11-15T11:02:28;23.30;;;19.53;;
9392;SDS011;4736;52.508;13.422;2022-11-15T11:05:36;21.90;;;19.00;;
9392;SDS011;4736;52.508;13.422;2022-11-15T11:08:54;19.73;;;17.70;;
9392;SDS011;4736;52.508;13.422;2022-11-15T11:11:58;21.07;;;18.07;;
9392;SDS011;4736;52.508;13.422;2022-11-15T11:15:09;20.23;;;18.13;;
9392;SDS011;4736;52.508;13.422;2022-11-15T11:18:18;18.47;;;16.47;;
9392;SDS011;4736;52.508;13.422;2022-11-15T11:21:29;20.83;;;18.53;;
9392;SDS011;4736;52.508;13.422;2022-11-15T11:24:44;21.47;;;18.57;;
9392;SDS011;4736;52.508;13.422;2022-11-15T11:27:54;22.77;;;18.30;;
9392;SDS011;4736;52.508;13.422;2022-11-15T11:31:07;21.13;;;18.17;;
9392;SDS011;4736;52.508;13.422;2022-11-15T11:34:32;19.90;;;17.80;;
9392;SDS011;4736;52.508;13.422;2022-11-15T11:37:46;19.53;;;17.30;;
9392;SDS011;4736;52.508;13.422;2022-11-15T11:40:56;21.00;;;18.80;;
9392;SDS011;4736;52.508;13.422;2022-11-15T11:44:07;20.90;;;18.73;;
9392;SDS011;4736;52.508;13.422;2022-11-15T11:47:23;19.70;;;17.67;;
9392;SDS011;4736;52.508;13.422;2022-11-15T11:50:28;19.47;;;17.53;;
9392;SDS011;4736;52.508;13.422;2022-11-15T11:53:35;22.53;;;19.57;;
9392;SDS011;4736;52.508;13.422;2022-11-15T11:56:44;21.20;;;18.97;;
9392;SDS011;4736;52.508;13.422;2022-11-15T11:59:48;21.67;;;18.93;;
9392;SDS011;4736;52.508;13.422;2022-11-15T12:03:01;19.27;;;17.30;;
9392;SDS011;4736;52.508;13.422;2022-11-15T12:06:21;19.20;;;17.03;;
9392;SDS011;4736;52.508;13.422;2022-11-15T12:09:32;18.57;;;16.67;;
9392;SDS011;4736;52.508;13.422;2022-11-15T12:12:40;19.00;;;17.10;;
9392;SDS011;4736;52.508;13.422;2022-11-15T12:15:53;18.93;;;16.93;;
9392;SDS011;4736;52.508;13.422;2022-11-15T12:19:05;18.53;;;16.47;;
9392;SDS011;4736;52.508;13.422;2022-11-15T12:22:10;15.80;;;14.13;;
9392;SDS011;4736;52.508;13.422;2022-11-15T12:25:22;19.53;;;16.87;;
9392;SDS011;4736;52.508;13.422;2022-11-15T12:28:34;19.23;;;17.23;;
9392;SDS011;4736;52.508;13.422;2022-11-15T12:32:14;19.57;;;17.47;;
9392;SDS011;4736;52.508;13.422;2022-11-15T12:35:27;17.33;;;15.60;;
9392;SDS011;4736;52.508;13.422;2022-11-15T12:38:52;17.50;;;15.47;;
9392;SDS011;4736;52.508;13.422;2022-11-15T12:45:35;18.27;;;16.37;;
9392;SDS011;4736;52.508;13.422;2022-11-15T12:48:57;20.57;;;18.57;;
9392;SDS011;4736;52.508;13.422;2022-11-15T12:52:05;18.30;;;16.30;;
9392;SDS011;4736;52.508;13.422;2022-11-15T12:55:29;19.50;;;16.30;;
9392;SDS011;4736;52.508;13.422;2022-11-15T12:58:40;19.00;;;17.03;;
9392;SDS011;4736;52.508;13.422;2022-11-15T13:01:57;17.70;;;15.87;;
9392;SDS011;4736;52.508;13.422;2022-11-15T13:08:56;21.80;;;17.63;;
9392;SDS011;4736;52.508;13.422;2022-11-15T13:11:59;18.90;;;16.80;;
9392;SDS011;4736;52.508;13.422;2022-11-15T13:15:07;16.90;;;15.23;;
9392;SDS011;4736;52.508;13.422;2022-11-15T13:18:44;21.03;;;17.17;;
9392;SDS011;4736;52.508;13.422;2022-11-15T13:21:55;18.87;;;16.53;;
9392;SDS011;4736;52.508;13.422;2022-11-15T13:25:16;17.27;;;15.50;;
9392;SDS011;4736;52.508;13.422;2022-11-15T13:28:29;19.97;;;15.83;;
9392;SDS011;4736;52.508;13.422;2022-11-15T13:31:40;18.43;;;16.00;;
9392;SDS011;4736;52.508;13.422;2022-11-15T13:34:48;17.20;;;15.50;;
9392;SDS011;4736;52.508;13.422;2022-11-15T13:37:55;20.10;;;15.87;;
9392;SDS011;4736;52.508;13.422;2022-11-15T13:41:00;21.20;;;15.97;;
9392;SDS011;4736;52.508;13.422;2022-11-15T13:44:19;15.17;;;13.67;;
9392;SDS011;4736;52.508;13.422;2022-11-15T13:47:24;16.67;;;14.97;;
9392;SDS011;4736;52.508;13.422;2022-11-15T13:50:31;18.60;;;15.70;;
9392;SDS011;4736;52.508;13.422;2022-11-15T13:53:36;17.10;;;14.93;;
9392;SDS011;4736;52.508;13.422;2022-11-15T13:56:44;15.80;;;14.23;;
9392;SDS011;4736;52.508;13.422;2022-11-15T13:59:51;14.80;;;13.33;;
9392;SDS011;4736;52.508;13.422;2022-11-15T14:02:56;13.73;;;12.53;;
9392;SDS011;4736;52.508;13.422;2022-11-15T14:06:08;14.93;;;13.37;;
9392;SDS011;4736;52.508;13.422;2022-11-15T14:09:24;16.00;;;14.40;;
9392;SDS011;4736;52.508;13.422;2022-11-15T14:12:38;22.00;;;16.33;;
9392;SDS011;4736;52.508;13.422;2022-11-15T14:15:42;17.23;;;14.23;;
9392;SDS011;4736;52.508;13.422;2022-11-15T14:18:46;19.47;;;16.30;;
9392;SDS011;4736;52.508;13.422;2022-11-15T14:25:17;17.03;;;15.40;;
9392;SDS011;4736;52.508;13.422;2022-11-15T14:28:28;16.10;;;14.50;;
9392;SDS011;4736;52.508;13.422;2022-11-15T14:31:34;18.33;;;16.13;;
9392;SDS011;4736;52.508;13.422;2022-11-15T14:34:43;16.70;;;15.03;;
9392;SDS011;4736;52.508;13.422;2022-11-15T14:37:48;17.80;;;16.03;;
9392;SDS011;4736;52.508;13.422;2022-11-15T14:40:58;16.90;;;15.20;;
9392;SDS011;4736;52.508;13.422;2022-11-15T14:44:00;17.83;;;15.60;;
9392;SDS011;4736;52.508;13.422;2022-11-15T14:47:04;26.67;;;17.50;;
9392;SDS011;4736;52.508;13.422;2022-11-15T14:50:10;16.57;;;14.83;;
9392;SDS011;4736;52.508;13.422;2022-11-15T14:53:16;16.90;;;15.30;;
9392;SDS011;4736;52.508;13.422;2022-11-15T14:56:21;17.50;;;15.40;;
9392;SDS011;4736;52.508;13.422;2022-11-15T14:59:23;18.83;;;16.93;;
9392;SDS011;4736;52.508;13.422;2022-11-15T15:02:27;17.97;;;15.57;;
9392;SDS011;4736;52.508;13.422;2022-11-15T15:05:30;18.97;;;17.00;;
9392;SDS011;4736;52.508;13.422;2022-11-15T15:08:36;19.47;;;16.80;;
9392;SDS011;4736;52.508;13.422;2022-11-15T15:11:39;17.57;;;15.77;;
9392;SDS011;4736;52.508;13.422;2022-11-15T15:14:42;26.37;;;17.33;;
9392;SDS011;4736;52.508;13.422;2022-11-15T15:17:45;20.97;;;17.43;;
9392;SDS011;4736;52.508;13.422;2022-11-15T15:20:55;23.50;;;17.40;;
9392;SDS011;4736;52.508;13.422;2022-11-15T15:24:02;24.63;;;17.37;;
9392;SDS011;4736;52.508;13.422;2022-11-15T15:27:05;22.47;;;17.87;;
9392;SDS011;4736;52.508;13.422;2022-11-15T15:30:09;21.53;;;16.63;;
9392;SDS011;4736;52.508;13.422;2022-11-15T15:33:13;19.30;;;17.23;;
9392;SDS011;4736;52.508;13.422;2022-11-15T15:36:17;20.97;;;18.53;;
9392;SDS011;4736;52.508;13.422;2022-11-15T15:39:22;22.13;;;17.67;;
9392;SDS011;4736;52.508;13.422;2022-11-15T15:42:25;19.40;;;16.70;;
9392;SDS011;4736;52.508;13.422;2022-11-15T15:45:28;22.83;;;17.17;;
9392;SDS011;4736;52.508;13.422;2022-11-15T15:48:31;24.80;;;16.67;;
9392;SDS011;4736;52.508;13.422;2022-11-15T15:51:38;31.40;;;19.00;;
9392;SDS011;4736;52.508;13.422;2022-11-15T15:54:42;22.20;;;17.97;;
9392;SDS011;4736;52.508;13.422;2022-11-15T15:57:45;24.47;;;18.47;;
9392;SDS011;4736;52.508;13.422;2022-11-15T16:00:48;21.00;;;17.10;;
9392;SDS011;4736;52.508;13.422;2022-11-15T16:03:51;17.80;;;16.00;;
9392;SDS011;4736;52.508;13.422;2022-11-15T16:06:58;20.57;;;18.10;;
9392;SDS011;4736;52.508;13.422;2022-11-15T16:10:03;21.87;;;18.70;;
9392;SDS011;4736;52.508;13.422;2022-11-15T16:13:21;26.37;;;19.47;;
9392;SDS011;4736;52.508;13.422;2022-11-15T16:16:24;20.93;;;18.83;;
9392;SDS011;4736;52.508;13.422;2022-11-15T16:19:27;18.90;;;16.90;;
9392;SDS011;4736;52.508;13.422;2022-11-15T16:22:30;22.37;;;19.60;;
9392;SDS011;4736;52.508;13.422;2022-11-15T16:25:38;27.73;;;20.63;;
9392;SDS011;4736;52.508;13.422;2022-11-15T16:28:44;28.70;;;21.43;;
9392;SDS011;4736;52.508;13.422;2022-11-15T16:31:47;27.90;;;22.47;;
9392;SDS011;4736;52.508;13.422;2022-11-15T16:34:50;23.87;;;20.73;;
9392;SDS011;4736;52.508;13.422;2022-11-15T16:37:52;27.20;;;22.00;;
9392;SDS011;4736;52.508;13.422;2022-11-15T16:40:57;25.87;;;21.60;;
9392;SDS011;4736;52.508;13.422;2022-11-15T16:44:00;23.77;;;20.23;;
9392;SDS011;4736;52.508;13.422;2022-11-15T16:47:03;28.67;;;21.97;;
9392;SDS011;4736;52.508;13.422;2022-11-15T16:50:08;26.40;;;22.43;;
9392;SDS011;4736;52.508;13.422;2022-11-15T16:53:19;26.30;;;22.83;;
9392;SDS011;4736;52.508;13.422;2022-11-15T16:56:26;27.47;;;24.47;;
9392;SDS011;4736;52.508;13.422;2022-11-15T16:59:30;32.37;;;25.63;;
9392;SDS011;4736;52.508;13.422;2022-11-15T17:02:38;33.50;;;26.33;;
9392;SDS011;4736;52.508;13.422;2022-11-15T17:05:41;30.10;;;26.50;;
9392;SDS011;4736;52.508;13.422;2022-11-15T17:08:44;33.07;;;28.37;;
9392;SDS011;4736;52.508;13.422;2022-11-15T17:11:49;39.90;;;31.00;;
9392;SDS011;4736;52.508;13.422;2022-11-15T17:14:53;34.50;;;30.00;;
9392;SDS011;4736;52.508;13.422;2022-11-15T17:17:56;41.97;;;31.77;;
9392;SDS011;4736;52.508;13.422;2022-11-15T17:21:02;39.77;;;33.57;;
9392;SDS011;4736;52.508;13.422;2022-11-15T17:24:07;43.53;;;32.90;;
9392;SDS011;4736;52.508;13.422;2022-11-15T17:27:12;39.90;;;34.57;;
9392;SDS011;4736;52.508;13.422;2022-11-15T17:30:15;41.07;;;34.53;;
9392;SDS011;4736;52.508;13.422;2022-11-15T17:33:18;44.67;;;35.73;;
9392;SDS011;4736;52.508;13.422;2022-11-15T17:36:21;48.93;;;36.10;;
9392;SDS011;4736;52.508;13.422;2022-11-15T17:39:24;45.00;;;35.20;;
9392;SDS011;4736;52.508;13.422;2022-11-15T17:42:32;44.67;;;34.90;;
9392;SDS011;4736;52.508;13.422;2022-11-15T17:45:38;46.00;;;36.03;;
9392;SDS011;4736;52.508;13.422;2022-11-15T17:48:42;49.77;;;37.23;;
9392;SDS011;4736;52.508;13.422;2022-11-15T17:51:45;45.77;;;35.60;;
9392;SDS011;4736;52.508;13.422;2022-11-15T17:54:50;48.00;;;36.87;;
9392;SDS011;4736;52.508;13.422;2022-11-15T17:57:54;47.57;;;35.87;;
9392;SDS011;4736;52.508;13.422;2022-11-15T18:01:03;49.17;;;36.93;;
9392;SDS011;4736;52.508;13.422;2022-11-15T18:04:07;43.67;;;35.13;;
9392;SDS011;4736;52.508;13.422;2022-11-15T18:07:10;49.33;;;37.57;;
9392;SDS011;4736;52.508;13.422;2022-11-15T18:10:14;47.70;;;37.13;;
9392;SDS011;4736;52.508;13.422;2022-11-15T18:13:19;48.20;;;36.47;;
9392;SDS011;4736;52.508;13.422;2022-11-15T18:16:31;48.67;;;37.87;;
9392;SDS011;4736;52.508;13.422;2022-11-15T18:19:37;46.00;;;35.70;;
9392;SDS011;4736;52.508;13.422;2022-11-15T18:22:40;48.97;;;37.50;;
9392;SDS011;4736;52.508;13.422;2022-11-15T18:25:43;43.80;;;35.23;;
9392;SDS011;4736;52.508;13.422;2022-11-15T18:28:55;45.83;;;35.53;;
9392;SDS011;4736;52.508;13.422;2022-11-15T18:32:03;42.30;;;34.00;;
9392;SDS011;4736;52.508;13.422;2022-11-15T18:35:16;44.80;;;34.77;;
9392;SDS011;4736;52.508;13.422;2022-11-15T18:38:20;47.63;;;36.07;;
9392;SDS011;4736;52.508;13.422;2022-11-15T18:41:23;45.27;;;35.87;;
9392;SDS011;4736;52.508;13.422;2022-11-15T18:44:30;44.60;;;36.07;;